Terminal Aerodrome Forecast
Issued by NWS Spokane, WA

Home | Current Version | Previous Version | Text Only | Print | Product List | Glossary On
Versions: 1 2 3 4 5 6 7 8 9 10 11 12 13 14 15 16 17 18 19 20 21 22 23 24
831
FTUS46 KOTX 080528
TAFLWS
TAF
KLWS 080528Z 0806/0906 12003KT P6SM SCT080
     FM080900 15004KT P6SM VCFG SKC
     FM081500 12005KT P6SM SKC=

USA.gov is the U.S. government's official web portal to all federal, state and local government web resources and services.